Time;durP1;ratioP1;P1;durP2;ratioP2;P2;SDS_P1;SDS_P2;PMS_P1;PMS_P2;Temp;Humidity;BMP_temperature;BMP_pressure;BME280_temperature;BME280_humidity;BME280_pressure;Samples;Min_cycle;Max_cycle;Signal;HPM_P1;HPM_P2
2021/03/18 00:00:06;;;;;;;8.10;2.90;;;;;;;;;;5046304;28;20052;-63
2021/03/18 00:02:32;;;;;;;7.97;2.85;;;;;;;;;;5041756;28;20033;-63
2021/03/18 00:04:59;;;;;;;5.00;2.38;;;;;;;;;;5049774;28;20106;-63
2021/03/18 00:07:26;;;;;;;4.50;2.13;;;;;;;;;;5043439;28;20048;-64
2021/03/18 00:09:53;;;;;;;7.10;2.60;;;;;;;;;;5047935;28;20499;-63
2021/03/18 00:12:19;;;;;;;7.68;2.58;;;;;;;;;;5043360;28;20049;-63
2021/03/18 00:14:45;;;;;;;6.80;2.80;;;;;;;;;;5047734;28;20041;-63
2021/03/18 00:17:12;;;;;;;10.03;2.87;;;;;;;;;;5046762;28;20037;-63
2021/03/18 00:19:39;;;;;;;3.03;1.90;;;;;;;;;;5042921;28;20732;-63
2021/03/18 00:22:05;;;;;;;3.92;1.85;;;;;;;;;;5043672;28;20296;-63
2021/03/18 00:24:34;;;;;;;6.13;3.30;;;;;;;;;;5044576;28;20056;-63
2021/03/18 00:27:01;;;;;;;5.22;2.83;;;;;;;;;;5041627;28;20053;-63
2021/03/18 00:29:27;;;;;;;8.15;2.20;;;;;;;;;;5042937;28;20046;-63
2021/03/18 00:31:54;;;;;;;4.47;2.33;;;;;;;;;;5039794;28;20056;-63
2021/03/18 00:34:20;;;;;;;4.28;2.15;;;;;;;;;;5043586;28;20286;-63
2021/03/18 00:36:46;;;;;;;3.83;2.28;;;;;;;;;;5042469;28;20092;-63
2021/03/18 00:39:13;;;;;;;6.07;2.50;;;;;;;;;;5045649;28;20519;-63
2021/03/18 00:41:39;;;;;;;10.37;2.40;;;;;;;;;;5042317;28;20401;-63
2021/03/18 00:44:06;;;;;;;5.22;2.58;;;;;;;;;;5047516;28;20107;-63
2021/03/18 00:46:32;;;;;;;8.05;2.70;;;;;;;;;;5042991;28;20061;-63
2021/03/18 00:48:59;;;;;;;3.85;1.98;;;;;;;;;;5043344;28;20516;-63
2021/03/18 00:51:25;;;;;;;6.30;2.67;;;;;;;;;;5044282;28;20037;-63
2021/03/18 00:53:52;;;;;;;4.13;2.45;;;;;;;;;;5045880;28;20132;-63
2021/03/18 00:56:20;;;;;;;;;;;;;;;;;;5041083;28;20049;-63
2021/03/18 00:58:50;;;;;;;4.25;2.30;;;;;;;;;;5046318;28;19932;-63
2021/03/18 01:01:22;;;;;;;7.75;2.80;;;;;;;;;;5040643;28;20045;-64
2021/03/18 01:03:50;;;;;;;3.47;2.70;;;;;;;;;;5042069;28;20059;-63
2021/03/18 01:06:17;;;;;;;5.70;2.42;;;;;;;;;;5058373;28;20033;-63
2021/03/18 01:08:45;;;;;;;9.02;2.70;;;;;;;;;;5041688;28;20420;-63
2021/03/18 01:11:12;;;;;;;5.25;2.75;;;;;;;;;;5047772;28;20044;-64
2021/03/18 01:13:40;;;;;;;8.40;3.20;;;;;;;;;;5046652;28;20041;-64
2021/03/18 01:16:12;;;;;;;8.23;2.80;;;;;;;;;;5042476;28;20098;-64
2021/03/18 01:18:41;;;;;;;8.18;2.80;;;;;;;;;;5046044;28;20475;-64
2021/03/18 01:21:08;;;;;;;8.77;2.58;;;;;;;;;;5040552;28;20036;-64
2021/03/18 01:23:35;;;;;;;5.68;2.50;;;;;;;;;;5045408;28;20045;-64
2021/03/18 01:26:01;;;;;;;5.82;2.65;;;;;;;;;;5047203;28;20133;-63
2021/03/18 01:28:29;;;;;;;5.35;2.30;;;;;;;;;;5044102;28;20048;-64
2021/03/18 01:30:55;;;;;;;3.50;1.80;;;;;;;;;;5040356;28;20551;-64
2021/03/18 01:33:22;;;;;;;7.05;1.95;;;;;;;;;;5041206;28;20103;-64
2021/03/18 01:35:49;;;;;;;5.85;2.78;;;;;;;;;;5046452;28;20097;-64
2021/03/18 01:38:15;;;;;;;6.70;2.55;;;;;;;;;;5041732;28;20446;-64
2021/03/18 01:40:41;;;;;;;6.85;2.72;;;;;;;;;;5044948;28;20045;-64
2021/03/18 01:43:07;;;;;;;5.13;2.80;;;;;;;;;;5042515;28;20501;-64
2021/03/18 01:45:34;;;;;;;3.75;2.45;;;;;;;;;;5047266;28;20390;-64
2021/03/18 01:48:04;;;;;;;5.43;2.25;;;;;;;;;;5047529;28;20064;-64
2021/03/18 01:50:31;;;;;;;8.65;2.95;;;;;;;;;;5050395;28;20558;-63
2021/03/18 01:52:57;;;;;;;;;;;;;;;;;;5053442;28;20412;-64
2021/03/18 01:55:30;;;;;;;4.63;2.47;;;;;;;;;;5052827;28;19968;-65
2021/03/18 01:57:56;;;;;;;7.50;2.40;;;;;;;;;;5045286;28;20048;-63
2021/03/18 02:00:24;;;;;;;7.43;3.28;;;;;;;;;;5041052;28;20095;-63
2021/03/18 02:02:55;;;;;;;6.78;2.25;;;;;;;;;;5043841;28;20076;-63
2021/03/18 02:05:22;;;;;;;;;;;;;;;;;;5042941;28;20705;-64
2021/03/18 02:07:51;;;;;;;4.80;2.70;;;;;;;;;;5048905;28;20011;-63
2021/03/18 02:10:18;;;;;;;4.22;2.50;;;;;;;;;;5043878;28;20136;-63
2021/03/18 02:12:45;;;;;;;5.38;1.98;;;;;;;;;;5046288;28;20053;-63
2021/03/18 02:15:11;;;;;;;4.28;2.60;;;;;;;;;;5044347;28;20044;-63
2021/03/18 02:17:54;;;;;;;6.10;1.83;;;;;;;;;;5051427;28;20048;-63
2021/03/18 02:20:26;;;;;;;5.78;2.40;;;;;;;;;;5051061;28;20549;-63
2021/03/18 02:22:54;;;;;;;6.97;2.63;;;;;;;;;;5045887;28;20041;-63
2021/03/18 02:25:31;;;;;;;11.07;2.60;;;;;;;;;;5049699;28;20033;-63
2021/03/18 02:27:58;;;;;;;4.55;2.50;;;;;;;;;;5044104;28;20102;-63
2021/03/18 02:30:44;;;;;;;10.38;2.60;;;;;;;;;;5043306;28;20489;-63
2021/03/18 02:33:19;;;;;;;5.70;2.55;;;;;;;;;;5036690;28;20052;-63
2021/03/18 02:35:55;;;;;;;4.15;2.13;;;;;;;;;;5046043;28;20107;-64
2021/03/18 02:38:24;;;;;;;5.82;2.70;;;;;;;;;;5046405;28;20484;-63
2021/03/18 02:40:52;;;;;;;7.05;2.25;;;;;;;;;;5041973;28;20046;-63
2021/03/18 02:43:19;;;;;;;8.43;2.53;;;;;;;;;;5049682;28;20095;-63
2021/03/18 02:45:45;;;;;;;;;;;;;;;;;;5046191;28;20037;-63
2021/03/18 02:48:16;;;;;;;5.53;2.38;;;;;;;;;;5042666;28;19948;-63
2021/03/18 02:50:43;;;;;;;6.35;2.45;;;;;;;;;;5047790;28;20102;-63
2021/03/18 02:53:10;;;;;;;7.13;2.28;;;;;;;;;;5045019;28;20112;-64
2021/03/18 02:55:37;;;;;;;7.68;2.75;;;;;;;;;;5049479;28;20049;-63
2021/03/18 02:58:04;;;;;;;5.63;2.83;;;;;;;;;;5049832;28;20049;-63
2021/03/18 03:00:30;;;;;;;;;;;;;;;;;;5049752;28;20106;-63
2021/03/18 03:02:56;;;;;;;5.72;2.25;;;;;;;;;;5050000;28;19921;-63
2021/03/18 03:05:24;;;;;;;4.10;2.00;;;;;;;;;;5048350;28;20412;-63
2021/03/18 03:07:51;;;;;;;4.28;2.08;;;;;;;;;;5051109;28;20045;-63
2021/03/18 03:10:19;;;;;;;6.80;2.90;;;;;;;;;;5048624;28;20416;-63
2021/03/18 03:12:45;;;;;;;7.03;2.60;;;;;;;;;;5046208;28;20203;-63
2021/03/18 03:15:12;;;;;;;6.05;2.10;;;;;;;;;;5043462;28;20099;-63
2021/03/18 03:17:39;;;;;;;3.15;1.92;;;;;;;;;;5048384;28;20049;-63
2021/03/18 03:20:08;;;;;;;10.57;2.97;;;;;;;;;;5044815;28;20075;-63
2021/03/18 03:22:35;;;;;;;3.63;2.22;;;;;;;;;;5046734;28;20048;-63
2021/03/18 03:25:03;;;;;;;9.70;2.90;;;;;;;;;;5052250;28;20051;-63
2021/03/18 03:27:29;;;;;;;9.10;2.70;;;;;;;;;;5040977;28;20674;-63
2021/03/18 03:29:56;;;;;;;2.60;1.73;;;;;;;;;;5041345;28;20053;-63
2021/03/18 03:32:22;;;;;;;4.20;2.03;;;;;;;;;;5043909;28;20536;-63
2021/03/18 03:34:49;;;;;;;4.60;2.28;;;;;;;;;;5050050;28;20041;-63
2021/03/18 03:37:15;;;;;;;6.00;2.80;;;;;;;;;;5047170;28;20432;-63
2021/03/18 03:39:42;;;;;;;6.20;3.03;;;;;;;;;;5050881;28;20045;-63
2021/03/18 03:42:09;;;;;;;4.25;2.28;;;;;;;;;;5050528;28;20041;-63
2021/03/18 03:44:36;;;;;;;5.63;2.70;;;;;;;;;;5057330;28;20199;-64
2021/03/18 03:47:03;;;;;;;8.95;3.53;;;;;;;;;;5048876;28;20471;-63
2021/03/18 03:49:30;;;;;;;;;;;;;;;;;;5046245;28;20064;-63
2021/03/18 03:52:04;;;;;;;4.85;2.38;;;;;;;;;;5047713;28;19931;-64
2021/03/18 03:54:31;;;;;;;5.72;2.72;;;;;;;;;;5048649;28;20049;-63
2021/03/18 03:56:57;;;;;;;;;;;;;;;;;;5048714;28;20478;-63
2021/03/18 03:59:24;;;;;;;8.07;2.67;;;;;;;;;;5047004;28;19925;-63
2021/03/18 04:01:51;;;;;;;4.85;2.40;;;;;;;;;;5048033;28;20048;-63
2021/03/18 04:04:29;;;;;;;6.33;2.67;;;;;;;;;;5046188;28;20405;-63
2021/03/18 04:06:57;;;;;;;6.40;2.87;;;;;;;;;;5040514;28;20120;-63
2021/03/18 04:09:24;;;;;;;5.93;2.70;;;;;;;;;;5041772;28;20072;-63
2021/03/18 04:11:51;;;;;;;4.28;2.70;;;;;;;;;;5043116;28;20040;-63
2021/03/18 04:14:19;;;;;;;4.27;1.97;;;;;;;;;;5042554;28;20041;-63
2021/03/18 04:16:46;;;;;;;8.33;2.60;;;;;;;;;;5044780;28;20094;-63
2021/03/18 04:19:12;;;;;;;;;;;;;;;;;;5038989;28;20063;-63
2021/03/18 04:21:40;;;;;;;4.77;2.50;;;;;;;;;;5045658;28;19921;-63
2021/03/18 04:24:07;;;;;;;5.33;2.73;;;;;;;;;;5039060;28;20045;-63
2021/03/18 04:26:34;;;;;;;5.55;3.00;;;;;;;;;;5047606;28;20049;-63
2021/03/18 04:29:02;;;;;;;5.77;2.40;;;;;;;;;;5044577;28;20039;-63
2021/03/18 04:31:29;;;;;;;4.63;2.77;;;;;;;;;;5042949;28;20037;-63
2021/03/18 04:33:55;;;;;;;7.25;2.97;;;;;;;;;;5041861;28;20136;-63
2021/03/18 04:36:22;;;;;;;6.18;3.00;;;;;;;;;;5042625;28;20099;-63
2021/03/18 04:38:49;;;;;;;3.30;2.03;;;;;;;;;;5035813;28;20042;-62
2021/03/18 04:41:16;;;;;;;5.65;3.08;;;;;;;;;;5043845;28;20124;-62
2021/03/18 04:43:43;;;;;;;8.10;2.75;;;;;;;;;;5041566;28;20411;-63
2021/03/18 04:46:09;;;;;;;7.27;2.10;;;;;;;;;;5039314;28;20084;-62
2021/03/18 04:48:37;;;;;;;5.43;2.60;;;;;;;;;;5037982;28;20056;-63
2021/03/18 04:51:07;;;;;;;6.40;3.00;;;;;;;;;;5043025;28;20102;-63
2021/03/18 04:53:34;;;;;;;10.27;2.80;;;;;;;;;;5043497;28;20041;-63
2021/03/18 04:56:00;;;;;;;5.93;2.60;;;;;;;;;;5043002;28;20467;-63
2021/03/18 04:58:27;;;;;;;7.57;3.57;;;;;;;;;;5043754;28;20558;-63
2021/03/18 05:00:53;;;;;;;9.52;3.08;;;;;;;;;;5043908;28;20129;-63
2021/03/18 05:03:19;;;;;;;6.60;2.60;;;;;;;;;;5044060;28;20257;-62
2021/03/18 05:05:46;;;;;;;7.57;2.90;;;;;;;;;;5042103;28;20032;-62
2021/03/18 05:08:13;;;;;;;9.38;2.83;;;;;;;;;;5044761;28;20045;-62
2021/03/18 05:10:41;;;;;;;5.67;2.23;;;;;;;;;;5043753;28;20404;-63
2021/03/18 05:13:09;;;;;;;8.23;2.77;;;;;;;;;;5043141;28;20099;-63
2021/03/18 05:15:36;;;;;;;3.80;2.63;;;;;;;;;;5047318;28;20498;-62
2021/03/18 05:18:07;;;;;;;9.98;3.78;;;;;;;;;;5048206;28;20083;-63
2021/03/18 05:20:33;;;;;;;5.73;2.90;;;;;;;;;;5041085;28;20485;-63
2021/03/18 05:22:59;;;;;;;6.57;2.63;;;;;;;;;;5045329;28;20055;-63
2021/03/18 05:25:27;;;;;;;8.40;2.93;;;;;;;;;;5053920;28;20056;-63
2021/03/18 05:27:53;;;;;;;8.10;2.77;;;;;;;;;;5047575;28;20053;-62
2021/03/18 05:30:20;;;;;;;4.28;2.00;;;;;;;;;;5046001;28;20045;-63
2021/03/18 05:32:47;;;;;;;4.85;2.00;;;;;;;;;;5051406;28;20040;-62
2021/03/18 05:35:33;;;;;;;7.17;2.60;;;;;;;;;;5048031;28;20399;-63
2021/03/18 05:37:59;;;;;;;4.03;2.33;;;;;;;;;;5043553;28;20051;-63
2021/03/18 05:40:26;;;;;;;5.20;2.53;;;;;;;;;;5048141;28;20060;-63
2021/03/18 05:42:52;;;;;;;6.97;2.47;;;;;;;;;;5051936;28;20040;-63
2021/03/18 05:45:18;;;;;;;7.10;2.77;;;;;;;;;;5044090;28;20054;-63
2021/03/18 05:47:45;;;;;;;3.60;2.17;;;;;;;;;;5049352;28;20047;-63
2021/03/18 05:50:13;;;;;;;3.00;2.00;;;;;;;;;;5053131;28;20501;-62
2021/03/18 05:52:40;;;;;;;6.83;2.30;;;;;;;;;;5046745;28;20038;-62
2021/03/18 05:55:07;;;;;;;4.43;2.33;;;;;;;;;;5045659;28;20103;-63
2021/03/18 05:57:34;;;;;;;3.88;2.60;;;;;;;;;;5042009;28;20531;-63
2021/03/18 06:00:08;;;;;;;5.57;2.42;;;;;;;;;;5048717;28;20042;-62
2021/03/18 06:02:39;;;;;;;4.28;1.98;;;;;;;;;;5048803;28;20496;-62
2021/03/18 06:05:07;;;;;;;7.65;2.60;;;;;;;;;;5046142;28;20840;-63
2021/03/18 06:07:36;;;;;;;7.30;2.50;;;;;;;;;;5045506;28;20111;-63
2021/03/18 06:10:04;;;;;;;4.60;2.20;;;;;;;;;;5048238;28;20035;-63
2021/03/18 06:12:30;;;;;;;;;;;;;;;;;;5052820;28;20051;-63
2021/03/18 06:14:56;;;;;;;3.27;2.37;;;;;;;;;;5052070;28;19925;-63
2021/03/18 06:17:22;;;;;;;6.93;2.50;;;;;;;;;;5053706;28;20095;-63
2021/03/18 06:19:51;;;;;;;5.82;2.05;;;;;;;;;;5041879;28;20083;-63
2021/03/18 06:22:30;;;;;;;7.07;2.50;;;;;;;;;;5047970;28;20095;-63
2021/03/18 06:24:56;;;;;;;5.17;2.40;;;;;;;;;;5048469;28;20528;-63
2021/03/18 06:27:24;;;;;;;6.23;2.13;;;;;;;;;;5045584;28;20386;-63
2021/03/18 06:29:50;;;;;;;7.63;2.13;;;;;;;;;;5050928;28;20526;-63
2021/03/18 06:32:17;;;;;;;6.35;2.15;;;;;;;;;;5048604;28;20103;-63
2021/03/18 06:34:45;;;;;;;5.82;2.00;;;;;;;;;;5042963;28;20080;-63
2021/03/18 06:37:30;;;;;;;6.55;2.33;;;;;;;;;;5054113;28;20123;-63
2021/03/18 06:40:08;;;;;;;5.53;2.30;;;;;;;;;;5046982;28;20056;-64
2021/03/18 06:42:35;;;;;;;10.40;3.13;;;;;;;;;;5046739;28;20071;-63
2021/03/18 06:45:10;;;;;;;3.08;2.08;;;;;;;;;;5050315;28;20056;-63
2021/03/18 06:47:39;;;;;;;3.28;2.28;;;;;;;;;;5039760;28;20068;-63
2021/03/18 06:50:07;;;;;;;7.78;2.00;;;;;;;;;;5048584;28;20576;-63
2021/03/18 06:52:37;;;;;;;6.68;2.30;;;;;;;;;;5050482;28;20147;-63
2021/03/18 06:55:03;;;;;;;6.75;2.30;;;;;;;;;;5053280;28;20049;-63
2021/03/18 06:57:30;;;;;;;7.55;2.30;;;;;;;;;;5048786;28;20273;-63
2021/03/18 06:59:57;;;;;;;5.30;1.90;;;;;;;;;;5051639;28;20052;-63
2021/03/18 07:02:23;;;;;;;10.48;2.38;;;;;;;;;;5053397;28;20044;-63
2021/03/18 07:04:54;;;;;;;7.95;2.30;;;;;;;;;;5042417;28;20080;-63
2021/03/18 07:07:22;;;;;;;7.72;2.28;;;;;;;;;;5058572;28;20048;-63
2021/03/18 07:09:50;;;;;;;5.40;2.10;;;;;;;;;;5048413;28;20037;-63
2021/03/18 07:12:18;;;;;;;8.85;2.38;;;;;;;;;;5055026;28;20052;-63
2021/03/18 07:14:48;;;;;;;3.70;1.73;;;;;;;;;;5052943;28;20037;-63
2021/03/18 07:17:18;;;;;;;7.28;2.00;;;;;;;;;;5054248;28;20500;-63
2021/03/18 07:19:44;;;;;;;3.95;2.00;;;;;;;;;;5053378;28;20052;-63
2021/03/18 07:22:17;;;;;;;6.88;1.85;;;;;;;;;;5054175;28;20046;-63
2021/03/18 07:24:50;;;;;;;5.65;2.17;;;;;;;;;;5052057;28;20362;-63
2021/03/18 07:27:18;;;;;;;5.55;2.30;;;;;;;;;;5042191;28;20053;-63
2021/03/18 07:29:46;;;;;;;4.47;2.17;;;;;;;;;;5039133;28;20072;-63
2021/03/18 07:32:12;;;;;;;5.40;1.80;;;;;;;;;;5051446;28;20041;-62
2021/03/18 07:34:40;;;;;;;2.07;1.47;;;;;;;;;;5047209;28;20052;-62
2021/03/18 07:37:07;;;;;;;5.40;2.22;;;;;;;;;;5044946;28;20787;-63
2021/03/18 07:39:33;;;;;;;4.88;1.80;;;;;;;;;;5046402;28;20047;-63
2021/03/18 07:42:01;;;;;;;3.38;1.85;;;;;;;;;;5050073;28;20033;-62
2021/03/18 07:44:27;;;;;;;3.80;1.83;;;;;;;;;;5043168;28;20432;-63
2021/03/18 07:46:54;;;;;;;4.15;1.95;;;;;;;;;;5057694;28;20037;-63
2021/03/18 07:49:22;;;;;;;2.67;1.67;;;;;;;;;;5055880;28;20044;-63
2021/03/18 07:51:51;;;;;;;2.80;1.58;;;;;;;;;;5041300;28;20405;-63
2021/03/18 07:54:18;;;;;;;4.00;1.60;;;;;;;;;;5044999;28;20195;-63
2021/03/18 07:56:48;;;;;;;3.72;1.70;;;;;;;;;;5054914;28;20094;-62
2021/03/18 07:59:15;;;;;;;2.83;1.85;;;;;;;;;;5055528;28;20496;-63
2021/03/18 08:01:41;;;;;;;9.15;1.23;;;;;;;;;;5056486;28;20048;-63
2021/03/18 08:04:09;;;;;;;10.25;1.90;;;;;;;;;;5049175;28;20047;-63
2021/03/18 08:06:51;;;;;;;2.63;1.42;;;;;;;;;;5042114;28;20053;-63
2021/03/18 08:09:26;;;;;;;2.85;1.40;;;;;;;;;;5045180;28;20528;-63
2021/03/18 08:11:52;;;;;;;5.47;1.58;;;;;;;;;;5046698;28;20041;-63
2021/03/18 08:14:20;;;;;;;1.80;1.52;;;;;;;;;;5044727;28;20053;-63
2021/03/18 08:16:47;;;;;;;6.88;1.92;;;;;;;;;;5041146;28;20101;-63
2021/03/18 08:19:14;;;;;;;7.10;1.50;;;;;;;;;;5043512;28;20136;-63
2021/03/18 08:21:47;;;;;;;2.67;1.48;;;;;;;;;;5043076;28;20052;-63
2021/03/18 08:24:14;;;;;;;2.65;1.50;;;;;;;;;;5047138;28;20463;-63
2021/03/18 08:26:44;;;;;;;6.93;1.90;;;;;;;;;;5053011;28;20052;-63
2021/03/18 08:29:12;;;;;;;3.63;1.60;;;;;;;;;;5041618;28;20488;-63
2021/03/18 08:31:43;;;;;;;4.78;1.65;;;;;;;;;;5037375;28;20151;-63
2021/03/18 08:34:10;;;;;;;3.22;1.50;;;;;;;;;;5048024;28;20037;-63
2021/03/18 08:36:38;;;;;;;3.10;1.55;;;;;;;;;;5042722;28;20102;-63
2021/03/18 08:39:06;;;;;;;7.40;2.08;;;;;;;;;;5043910;28;20049;-63
2021/03/18 08:41:41;;;;;;;2.17;1.45;;;;;;;;;;5048101;28;20044;-63
2021/03/18 08:44:15;;;;;;;2.83;1.33;;;;;;;;;;5046682;28;20399;-63
2021/03/18 08:46:41;;;;;;;6.63;1.40;;;;;;;;;;5041065;28;20122;-63
2021/03/18 08:49:21;;;;;;;4.28;1.30;;;;;;;;;;5042834;28;20045;-63
2021/03/18 08:51:48;;;;;;;5.45;1.40;;;;;;;;;;5043379;28;20095;-63
2021/03/18 08:54:33;;;;;;;1.52;1.17;;;;;;;;;;5049798;28;20087;-63
2021/03/18 08:56:59;;;;;;;1.52;0.98;;;;;;;;;;5044359;28;20068;-63
2021/03/18 08:59:26;;;;;;;1.20;1.00;;;;;;;;;;5049831;28;20053;-63
2021/03/18 09:02:04;;;;;;;1.85;1.08;;;;;;;;;;5052381;28;20094;-63
2021/03/18 09:04:41;;;;;;;5.00;1.20;;;;;;;;;;5048351;28;20501;-63
2021/03/18 09:07:08;;;;;;;4.28;1.10;;;;;;;;;;5041038;28;20048;-63
2021/03/18 09:09:34;;;;;;;1.17;0.85;;;;;;;;;;5046654;28;20473;-63
2021/03/18 09:12:01;;;;;;;4.07;1.00;;;;;;;;;;5047248;28;20448;-63
2021/03/18 09:14:27;;;;;;;1.80;1.10;;;;;;;;;;5043416;28;20488;-63
2021/03/18 09:17:07;;;;;;;2.80;0.73;;;;;;;;;;5042222;28;20052;-63
2021/03/18 09:19:55;;;;;;;2.50;1.20;;;;;;;;;;5043096;28;20079;-63
2021/03/18 09:22:25;;;;;;;8.60;1.00;;;;;;;;;;5045424;28;20040;-63
2021/03/18 09:24:54;;;;;;;1.83;1.02;;;;;;;;;;5053225;28;20041;-63
2021/03/18 09:27:20;;;;;;;3.05;1.00;;;;;;;;;;5049128;28;20056;-63
2021/03/18 09:29:46;;;;;;;2.95;0.90;;;;;;;;;;5049441;28;20115;-63
2021/03/18 09:32:13;;;;;;;2.03;0.82;;;;;;;;;;5048140;28;20552;-63
2021/03/18 09:34:41;;;;;;;1.17;0.70;;;;;;;;;;5050850;28;20080;-63
2021/03/18 09:37:09;;;;;;;0.75;0.40;;;;;;;;;;5046675;28;20037;-63
2021/03/18 09:39:36;;;;;;;0.65;0.55;;;;;;;;;;5044080;28;20132;-63
2021/03/18 09:42:05;;;;;;;2.10;0.50;;;;;;;;;;5040416;28;20049;-63
2021/03/18 09:44:31;;;;;;;2.28;0.63;;;;;;;;;;5041432;28;20041;-63
2021/03/18 09:46:59;;;;;;;3.22;0.70;;;;;;;;;;5048514;28;20045;-63
2021/03/18 09:49:36;;;;;;;0.40;0.40;;;;;;;;;;5049445;28;20250;-63
2021/03/18 09:52:05;;;;;;;2.17;0.65;;;;;;;;;;5043249;28;20050;-63
2021/03/18 09:54:32;;;;;;;2.42;0.50;;;;;;;;;;5047586;28;20080;-63
2021/03/18 09:56:59;;;;;;;1.00;0.60;;;;;;;;;;5043090;28;20098;-63
2021/03/18 09:59:26;;;;;;;1.52;0.60;;;;;;;;;;5046400;28;20049;-63
2021/03/18 10:01:52;;;;;;;1.35;0.68;;;;;;;;;;5041480;28;20041;-63
2021/03/18 10:04:20;;;;;;;3.25;0.63;;;;;;;;;;5047587;28;20052;-63
2021/03/18 10:06:48;;;;;;;2.97;0.60;;;;;;;;;;5042975;28;20040;-63
2021/03/18 10:09:28;;;;;;;1.73;0.73;;;;;;;;;;5048487;28;20040;-63
2021/03/18 10:11:54;;;;;;;1.65;0.70;;;;;;;;;;5050478;28;20075;-63
2021/03/18 10:14:25;;;;;;;2.35;0.80;;;;;;;;;;5050405;28;20037;-63
2021/03/18 10:17:10;;;;;;;4.20;1.00;;;;;;;;;;5051958;28;20514;-63
2021/03/18 10:19:39;;;;;;;5.93;0.90;;;;;;;;;;5052170;28;20072;-63
2021/03/18 10:22:06;;;;;;;1.52;0.90;;;;;;;;;;5050907;28;20513;-63
2021/03/18 10:24:33;;;;;;;2.63;0.80;;;;;;;;;;5047142;28;20132;-63
2021/03/18 10:27:07;;;;;;;1.50;0.93;;;;;;;;;;5047145;28;20128;-63
2021/03/18 10:29:33;;;;;;;2.20;0.93;;;;;;;;;;5047214;28;20041;-63
2021/03/18 10:32:01;;;;;;;;;;;;;;;;;;5059029;28;20032;-63
2021/03/18 10:34:28;;;;;;;5.35;0.80;;;;;;;;;;5050889;28;20309;-63
2021/03/18 10:36:54;;;;;;;1.85;0.60;;;;;;;;;;5052690;28;20124;-63
2021/03/18 10:39:40;;;;;;;2.17;0.80;;;;;;;;;;5046626;28;20136;-63
2021/03/18 10:42:06;;;;;;;1.77;0.70;;;;;;;;;;5052686;28;20060;-63
2021/03/18 10:44:36;;;;;;;3.15;0.93;;;;;;;;;;5051852;28;20049;-64
2021/03/18 10:47:16;;;;;;;5.95;0.60;;;;;;;;;;5049003;28;20037;-63
2021/03/18 10:50:15;;;;;;;3.53;0.73;;;;;;;;;;5044696;28;20123;-63
2021/03/18 10:52:50;;;;;;;1.02;0.65;;;;;;;;;;5016721;28;20493;-63
2021/03/18 10:55:20;;;;;;;1.23;0.57;;;;;;;;;;5044866;28;20045;-63
2021/03/18 10:57:52;;;;;;;1.20;0.55;;;;;;;;;;5052611;28;20053;-63
2021/03/18 11:00:19;;;;;;;1.27;0.63;;;;;;;;;;5052101;28;20541;-63
2021/03/18 11:02:55;;;;;;;3.55;0.73;;;;;;;;;;5048019;28;20064;-63
2021/03/18 11:05:27;;;;;;;1.90;0.55;;;;;;;;;;5052230;28;20037;-64
2021/03/18 11:07:54;;;;;;;1.95;0.50;;;;;;;;;;5057585;28;20040;-63
2021/03/18 11:10:20;;;;;;;1.02;0.30;;;;;;;;;;5059050;28;20071;-63
2021/03/18 11:12:57;;;;;;;0.65;0.60;;;;;;;;;;5051827;28;20048;-63
2021/03/18 11:15:24;;;;;;;3.50;0.57;;;;;;;;;;5047448;28;20033;-63
2021/03/18 11:18:09;;;;;;;0.88;0.47;;;;;;;;;;5051201;28;20099;-64
2021/03/18 11:20:36;;;;;;;0.63;0.57;;;;;;;;;;5050164;28;20049;-63
2021/03/18 11:23:03;;;;;;;3.92;0.60;;;;;;;;;;5048059;28;20462;-63
2021/03/18 11:25:30;;;;;;;;;;;;;;;;;;5051726;28;20468;-64
2021/03/18 11:27:56;;;;;;;1.85;0.65;;;;;;;;;;5048548;28;19987;-63
2021/03/18 11:30:27;;;;;;;0.82;0.40;;;;;;;;;;5050604;28;20481;-63
2021/03/18 11:33:06;;;;;;;1.08;0.40;;;;;;;;;;5043709;28;20086;-63
2021/03/18 11:35:32;;;;;;;2.65;0.75;;;;;;;;;;5053622;28;20048;-63
2021/03/18 11:37:59;;;;;;;0.40;0.30;;;;;;;;;;5050601;28;20045;-63
2021/03/18 11:40:34;;;;;;;4.18;0.60;;;;;;;;;;5045983;28;20041;-63
2021/03/18 11:43:01;;;;;;;0.50;0.45;;;;;;;;;;5042956;28;20530;-63
2021/03/18 11:45:27;;;;;;;0.43;0.43;;;;;;;;;;5048090;28;20045;-63
2021/03/18 11:47:53;;;;;;;3.60;0.57;;;;;;;;;;5051916;28;20091;-63
2021/03/18 11:50:21;;;;;;;2.05;0.63;;;;;;;;;;5044915;28;20041;-63
2021/03/18 11:52:47;;;;;;;3.97;0.77;;;;;;;;;;5046008;28;20041;-63
2021/03/18 11:55:13;;;;;;;3.40;0.73;;;;;;;;;;5050413;28;20042;-63
2021/03/18 11:57:40;;;;;;;0.80;0.60;;;;;;;;;;5051689;28;20099;-63
2021/03/18 12:00:09;;;;;;;2.58;0.57;;;;;;;;;;5044175;28;20055;-63
2021/03/18 12:02:37;;;;;;;1.65;0.63;;;;;;;;;;5050999;28;20095;-63
2021/03/18 12:05:27;;;;;;;3.42;0.95;;;;;;;;;;5049391;28;20069;-63
2021/03/18 12:07:53;;;;;;;1.42;0.80;;;;;;;;;;5048756;28;20102;-64
2021/03/18 12:10:19;;;;;;;2.47;0.68;;;;;;;;;;5050043;28;20041;-63
2021/03/18 12:12:46;;;;;;;0.88;0.70;;;;;;;;;;5044804;28;20123;-63
2021/03/18 12:15:12;;;;;;;0.70;0.55;;;;;;;;;;5041620;28;20109;-63
2021/03/18 12:17:38;;;;;;;0.75;0.50;;;;;;;;;;5049844;28;20063;-64
2021/03/18 12:20:07;;;;;;;1.85;0.70;;;;;;;;;;5049497;28;20459;-64
2021/03/18 12:22:33;;;;;;;0.55;0.47;;;;;;;;;;5045963;28;20041;-63
2021/03/18 12:25:00;;;;;;;0.70;0.43;;;;;;;;;;5052988;28;20036;-63
2021/03/18 12:27:27;;;;;;;0.40;0.40;;;;;;;;;;5050913;28;20053;-63
2021/03/18 12:29:53;;;;;;;0.63;0.30;;;;;;;;;;5045496;28;20041;-64
2021/03/18 12:32:19;;;;;;;1.15;0.40;;;;;;;;;;5042223;28;20393;-64
2021/03/18 12:34:46;;;;;;;2.17;0.40;;;;;;;;;;5050378;28;20128;-63
2021/03/18 12:37:14;;;;;;;0.70;0.47;;;;;;;;;;5051714;28;20036;-63
2021/03/18 12:39:41;;;;;;;0.40;0.40;;;;;;;;;;5050168;28;20049;-63
2021/03/18 12:42:11;;;;;;;1.10;0.60;;;;;;;;;;5048515;28;20106;-63
2021/03/18 12:44:40;;;;;;;1.77;0.77;;;;;;;;;;5050596;28;20056;-64
2021/03/18 12:47:08;;;;;;;1.48;0.60;;;;;;;;;;5050545;28;20041;-63
2021/03/18 12:49:34;;;;;;;0.45;0.45;;;;;;;;;;5049101;28;20129;-64
2021/03/18 12:52:01;;;;;;;1.00;0.50;;;;;;;;;;5050581;28;20037;-64
2021/03/18 12:54:28;;;;;;;0.85;0.65;;;;;;;;;;5048366;28;20036;-64
2021/03/18 12:56:54;;;;;;;2.83;0.57;;;;;;;;;;5055569;28;20044;-64
2021/03/18 12:59:20;;;;;;;2.10;0.60;;;;;;;;;;5048783;28;20048;-63
2021/03/18 13:01:47;;;;;;;3.53;1.08;;;;;;;;;;5049191;28;20125;-63
2021/03/18 13:04:14;;;;;;;1.42;0.68;;;;;;;;;;5045091;28;20452;-63
2021/03/18 13:06:41;;;;;;;0.82;0.50;;;;;;;;;;5049455;28;20052;-64
2021/03/18 13:09:08;;;;;;;2.28;0.80;;;;;;;;;;5047623;28;20385;-63
2021/03/18 13:11:47;;;;;;;1.65;0.85;;;;;;;;;;5053697;28;20595;-64
2021/03/18 13:14:14;;;;;;;0.75;0.57;;;;;;;;;;5051542;28;20068;-64
2021/03/18 13:16:41;;;;;;;1.83;0.80;;;;;;;;;;5045728;28;20075;-64
2021/03/18 13:19:08;;;;;;;5.03;0.80;;;;;;;;;;5045652;28;20045;-64
2021/03/18 13:21:35;;;;;;;0.93;0.63;;;;;;;;;;5050287;28;20045;-63
2021/03/18 13:24:01;;;;;;;1.55;0.90;;;;;;;;;;5049401;28;20103;-64
2021/03/18 13:26:27;;;;;;;2.05;0.75;;;;;;;;;;5046989;28;20515;-64
2021/03/18 13:28:53;;;;;;;1.50;0.90;;;;;;;;;;5047643;28;20123;-64
2021/03/18 13:31:21;;;;;;;2.85;0.60;;;;;;;;;;5049569;28;20040;-63
2021/03/18 13:33:48;;;;;;;5.20;1.00;;;;;;;;;;5048303;28;20063;-64
2021/03/18 13:36:15;;;;;;;0.80;0.65;;;;;;;;;;5050557;28;20041;-64
2021/03/18 13:38:41;;;;;;;1.02;0.65;;;;;;;;;;5047521;28;20045;-64
2021/03/18 13:41:08;;;;;;;1.05;0.88;;;;;;;;;;5049493;28;20072;-64
2021/03/18 13:43:34;;;;;;;1.60;0.95;;;;;;;;;;5051386;28;20045;-64
2021/03/18 13:46:00;;;;;;;2.63;0.70;;;;;;;;;;5052554;28;20159;-64
2021/03/18 13:48:27;;;;;;;3.67;0.70;;;;;;;;;;5049135;28;20045;-64
2021/03/18 13:50:54;;;;;;;0.40;0.40;;;;;;;;;;5053299;28;20037;-64
2021/03/18 13:53:22;;;;;;;2.58;0.55;;;;;;;;;;5051685;28;20865;-64
2021/03/18 13:55:48;;;;;;;2.15;0.40;;;;;;;;;;5054076;28;20059;-64
2021/03/18 13:58:15;;;;;;;0.93;0.52;;;;;;;;;;5050285;28;20518;-64
2021/03/18 14:00:41;;;;;;;3.45;0.50;;;;;;;;;;5057202;28;20056;-63
2021/03/18 14:03:10;;;;;;;0.77;0.52;;;;;;;;;;5057584;28;20044;-64
2021/03/18 14:05:37;;;;;;;0.50;0.50;;;;;;;;;;5047885;28;20552;-64
2021/03/18 14:08:05;;;;;;;0.88;0.40;;;;;;;;;;5053150;28;20043;-64
2021/03/18 14:10:33;;;;;;;2.53;0.57;;;;;;;;;;5051312;28;20041;-64
2021/03/18 14:13:00;;;;;;;1.65;0.70;;;;;;;;;;5050582;28;20041;-64
2021/03/18 14:15:27;;;;;;;1.38;0.70;;;;;;;;;;5048675;28;20106;-61
2021/03/18 14:17:53;;;;;;;0.45;0.43;;;;;;;;;;5053582;28;20036;-61
2021/03/18 14:20:23;;;;;;;0.90;0.70;;;;;;;;;;5054072;28;20041;-61
2021/03/18 14:22:49;;;;;;;2.13;0.60;;;;;;;;;;5050814;28;20045;-61
2021/03/18 14:25:16;;;;;;;1.38;0.60;;;;;;;;;;5054058;28;20121;-61
2021/03/18 14:27:43;;;;;;;1.08;0.52;;;;;;;;;;5051769;28;20060;-61
2021/03/18 14:30:27;;;;;;;1.55;0.60;;;;;;;;;;5049288;28;20396;-61
2021/03/18 14:32:54;;;;;;;2.00;0.80;;;;;;;;;;5053956;28;20382;-61
2021/03/18 14:35:22;;;;;;;1.42;0.65;;;;;;;;;;5056862;28;20044;-61
2021/03/18 14:37:48;;;;;;;2.95;0.65;;;;;;;;;;5051696;28;20045;-61
2021/03/18 14:40:16;;;;;;;2.55;0.90;;;;;;;;;;5056459;28;20041;-61
2021/03/18 14:42:56;;;;;;;7.85;1.35;;;;;;;;;;5053214;28;20060;-61
2021/03/18 14:45:23;;;;;;;0.90;0.50;;;;;;;;;;5051538;28;20131;-61
2021/03/18 14:47:49;;;;;;;2.47;1.10;;;;;;;;;;5046825;28;20041;-61
2021/03/18 14:50:16;;;;;;;2.95;0.60;;;;;;;;;;5044362;28;20045;-61
2021/03/18 14:52:43;;;;;;;1.80;0.75;;;;;;;;;;5049849;28;20043;-61